sensor_id;sensor_type;location;lat;lon;timestamp;P1;durP1;ratioP1;P2;durP2;ratioP2
16512;SDS011;8369;48.030;11.598;2024-02-28T00:01:28;16.20;;;10.23;;
16512;SDS011;8369;48.030;11.598;2024-02-28T00:03:54;16.73;;;10.07;;
16512;SDS011;8369;48.030;11.598;2024-02-28T00:06:20;16.03;;;10.20;;
16512;SDS011;8369;48.030;11.598;2024-02-28T00:08:46;15.80;;;10.57;;
16512;SDS011;8369;48.030;11.598;2024-02-28T00:11:15;15.40;;;9.90;;
16512;SDS011;8369;48.030;11.598;2024-02-28T00:13:43;16.47;;;10.83;;
16512;SDS011;8369;48.030;11.598;2024-02-28T00:16:11;18.67;;;11.27;;
16512;SDS011;8369;48.030;11.598;2024-02-28T00:18:37;18.30;;;10.43;;
16512;SDS011;8369;48.030;11.598;2024-02-28T00:21:03;18.17;;;11.60;;
16512;SDS011;8369;48.030;11.598;2024-02-28T00:23:29;20.07;;;11.80;;
16512;SDS011;8369;48.030;11.598;2024-02-28T00:25:55;15.17;;;9.47;;
16512;SDS011;8369;48.030;11.598;2024-02-28T00:28:21;15.73;;;10.23;;
16512;SDS011;8369;48.030;11.598;2024-02-28T00:30:47;19.80;;;10.97;;
16512;SDS011;8369;48.030;11.598;2024-02-28T00:33:12;15.97;;;10.67;;
16512;SDS011;8369;48.030;11.598;2024-02-28T00:35:39;18.70;;;11.80;;
16512;SDS011;8369;48.030;11.598;2024-02-28T00:38:05;17.87;;;11.30;;
16512;SDS011;8369;48.030;11.598;2024-02-28T00:40:31;24.20;;;12.20;;
16512;SDS011;8369;48.030;11.598;2024-02-28T00:42:57;18.47;;;11.53;;
16512;SDS011;8369;48.030;11.598;2024-02-28T00:45:23;16.47;;;12.27;;
16512;SDS011;8369;48.030;11.598;2024-02-28T00:47:49;17.83;;;11.40;;
16512;SDS011;8369;48.030;11.598;2024-02-28T00:50:14;17.20;;;10.97;;
16512;SDS011;8369;48.030;11.598;2024-02-28T00:52:40;16.70;;;11.53;;
16512;SDS011;8369;48.030;11.598;2024-02-28T00:55:06;14.47;;;10.00;;
16512;SDS011;8369;48.030;11.598;2024-02-28T00:57:35;17.63;;;11.27;;
16512;SDS011;8369;48.030;11.598;2024-02-28T01:00:04;16.63;;;10.50;;
16512;SDS011;8369;48.030;11.598;2024-02-28T01:02:33;18.37;;;12.03;;
16512;SDS011;8369;48.030;11.598;2024-02-28T01:04:59;18.43;;;11.07;;
16512;SDS011;8369;48.030;11.598;2024-02-28T01:07:25;17.93;;;12.07;;
16512;SDS011;8369;48.030;11.598;2024-02-28T01:09:51;18.10;;;10.67;;
16512;SDS011;8369;48.030;11.598;2024-02-28T01:12:17;19.37;;;12.43;;
16512;SDS011;8369;48.030;11.598;2024-02-28T01:14:43;19.90;;;12.23;;
16512;SDS011;8369;48.030;11.598;2024-02-28T01:17:09;18.00;;;11.93;;
16512;SDS011;8369;48.030;11.598;2024-02-28T01:19:34;20.77;;;13.43;;
16512;SDS011;8369;48.030;11.598;2024-02-28T01:22:00;21.50;;;12.73;;
16512;SDS011;8369;48.030;11.598;2024-02-28T01:24:26;19.40;;;12.90;;
16512;SDS011;8369;48.030;11.598;2024-02-28T01:26:52;19.93;;;11.73;;
16512;SDS011;8369;48.030;11.598;2024-02-28T01:29:17;20.33;;;11.83;;
16512;SDS011;8369;48.030;11.598;2024-02-28T01:31:43;16.93;;;11.23;;
16512;SDS011;8369;48.030;11.598;2024-02-28T01:34:09;17.00;;;11.70;;
16512;SDS011;8369;48.030;11.598;2024-02-28T01:36:35;17.50;;;12.03;;
16512;SDS011;8369;48.030;11.598;2024-02-28T01:39:01;20.13;;;12.57;;
16512;SDS011;8369;48.030;11.598;2024-02-28T01:41:34;19.53;;;13.17;;
16512;SDS011;8369;48.030;11.598;2024-02-28T01:43:59;21.50;;;12.83;;
16512;SDS011;8369;48.030;11.598;2024-02-28T01:46:26;19.47;;;11.77;;
16512;SDS011;8369;48.030;11.598;2024-02-28T01:48:56;18.17;;;12.10;;
16512;SDS011;8369;48.030;11.598;2024-02-28T01:51:25;17.67;;;12.10;;
16512;SDS011;8369;48.030;11.598;2024-02-28T01:53:55;18.27;;;12.10;;
16512;SDS011;8369;48.030;11.598;2024-02-28T01:56:23;20.43;;;12.13;;
16512;SDS011;8369;48.030;11.598;2024-02-28T01:58:50;19.30;;;12.07;;
16512;SDS011;8369;48.030;11.598;2024-02-28T02:01:17;22.17;;;12.90;;
16512;SDS011;8369;48.030;11.598;2024-02-28T02:03:43;18.50;;;11.50;;
16512;SDS011;8369;48.030;11.598;2024-02-28T02:06:09;16.60;;;11.87;;
16512;SDS011;8369;48.030;11.598;2024-02-28T02:08:36;18.50;;;12.10;;
16512;SDS011;8369;48.030;11.598;2024-02-28T02:11:02;17.03;;;11.47;;
16512;SDS011;8369;48.030;11.598;2024-02-28T02:13:28;18.07;;;11.43;;
16512;SDS011;8369;48.030;11.598;2024-02-28T02:15:54;16.87;;;11.70;;
16512;SDS011;8369;48.030;11.598;2024-02-28T02:18:20;16.83;;;12.30;;
16512;SDS011;8369;48.030;11.598;2024-02-28T02:20:46;16.43;;;11.53;;
16512;SDS011;8369;48.030;11.598;2024-02-28T02:23:15;20.27;;;11.67;;
16512;SDS011;8369;48.030;11.598;2024-02-28T02:25:44;20.33;;;11.83;;
16512;SDS011;8369;48.030;11.598;2024-02-28T02:28:11;17.60;;;12.03;;
16512;SDS011;8369;48.030;11.598;2024-02-28T02:30:37;18.00;;;11.10;;
16512;SDS011;8369;48.030;11.598;2024-02-28T02:33:04;18.77;;;11.93;;
16512;SDS011;8369;48.030;11.598;2024-02-28T02:35:30;18.20;;;12.40;;
16512;SDS011;8369;48.030;11.598;2024-02-28T02:37:56;16.03;;;10.73;;
16512;SDS011;8369;48.030;11.598;2024-02-28T02:40:22;18.20;;;11.57;;
16512;SDS011;8369;48.030;11.598;2024-02-28T02:42:48;18.23;;;11.47;;
16512;SDS011;8369;48.030;11.598;2024-02-28T02:45:14;19.77;;;12.63;;
16512;SDS011;8369;48.030;11.598;2024-02-28T02:47:40;21.50;;;14.13;;
16512;SDS011;8369;48.030;11.598;2024-02-28T02:50:05;22.07;;;14.60;;
16512;SDS011;8369;48.030;11.598;2024-02-28T02:52:32;18.20;;;12.23;;
16512;SDS011;8369;48.030;11.598;2024-02-28T02:54:57;18.47;;;11.47;;
16512;SDS011;8369;48.030;11.598;2024-02-28T02:57:23;18.77;;;11.80;;
16512;SDS011;8369;48.030;11.598;2024-02-28T02:59:49;19.50;;;12.57;;
16512;SDS011;8369;48.030;11.598;2024-02-28T03:02:15;18.30;;;12.03;;
16512;SDS011;8369;48.030;11.598;2024-02-28T03:04:41;18.37;;;12.83;;
16512;SDS011;8369;48.030;11.598;2024-02-28T03:07:06;20.07;;;12.67;;
16512;SDS011;8369;48.030;11.598;2024-02-28T03:09:32;18.40;;;12.37;;
16512;SDS011;8369;48.030;11.598;2024-02-28T03:11:59;16.97;;;11.60;;
16512;SDS011;8369;48.030;11.598;2024-02-28T03:14:27;21.27;;;12.57;;
16512;SDS011;8369;48.030;11.598;2024-02-28T03:16:53;17.70;;;12.40;;
16512;SDS011;8369;48.030;11.598;2024-02-28T03:19:20;18.37;;;12.70;;
16512;SDS011;8369;48.030;11.598;2024-02-28T03:21:47;20.70;;;12.50;;
16512;SDS011;8369;48.030;11.598;2024-02-28T03:24:14;20.67;;;13.60;;
16512;SDS011;8369;48.030;11.598;2024-02-28T03:26:39;19.77;;;13.33;;
16512;SDS011;8369;48.030;11.598;2024-02-28T03:29:05;19.17;;;13.60;;
16512;SDS011;8369;48.030;11.598;2024-02-28T03:31:34;20.17;;;13.27;;
16512;SDS011;8369;48.030;11.598;2024-02-28T03:34:04;21.73;;;13.03;;
16512;SDS011;8369;48.030;11.598;2024-02-28T03:36:30;19.23;;;13.63;;
16512;SDS011;8369;48.030;11.598;2024-02-28T03:38:55;21.17;;;14.40;;
16512;SDS011;8369;48.030;11.598;2024-02-28T03:41:21;21.23;;;14.07;;
16512;SDS011;8369;48.030;11.598;2024-02-28T03:43:48;20.50;;;12.97;;
16512;SDS011;8369;48.030;11.598;2024-02-28T03:46:14;21.93;;;13.63;;
16512;SDS011;8369;48.030;11.598;2024-02-28T03:48:40;22.43;;;13.67;;
16512;SDS011;8369;48.030;11.598;2024-02-28T03:51:06;24.20;;;14.00;;
16512;SDS011;8369;48.030;11.598;2024-02-28T03:53:32;24.60;;;13.67;;
16512;SDS011;8369;48.030;11.598;2024-02-28T03:55:57;18.80;;;12.77;;
16512;SDS011;8369;48.030;11.598;2024-02-28T03:58:24;18.33;;;12.43;;
16512;SDS011;8369;48.030;11.598;2024-02-28T04:00:53;20.83;;;13.83;;
16512;SDS011;8369;48.030;11.598;2024-02-28T04:03:18;22.03;;;13.67;;
16512;SDS011;8369;48.030;11.598;2024-02-28T04:05:44;21.60;;;14.13;;
16512;SDS011;8369;48.030;11.598;2024-02-28T04:08:10;21.87;;;14.20;;
16512;SDS011;8369;48.030;11.598;2024-02-28T04:10:36;20.07;;;14.00;;
16512;SDS011;8369;48.030;11.598;2024-02-28T04:13:02;25.67;;;14.50;;
16512;SDS011;8369;48.030;11.598;2024-02-28T04:15:28;25.90;;;15.20;;
16512;SDS011;8369;48.030;11.598;2024-02-28T04:17:55;24.00;;;14.53;;
16512;SDS011;8369;48.030;11.598;2024-02-28T04:20:21;24.37;;;15.27;;
16512;SDS011;8369;48.030;11.598;2024-02-28T04:22:47;26.20;;;15.73;;
16512;SDS011;8369;48.030;11.598;2024-02-28T04:25:12;26.73;;;15.60;;
16512;SDS011;8369;48.030;11.598;2024-02-28T04:27:38;29.93;;;16.93;;
16512;SDS011;8369;48.030;11.598;2024-02-28T04:30:04;24.30;;;15.27;;
16512;SDS011;8369;48.030;11.598;2024-02-28T04:32:31;27.57;;;16.73;;
16512;SDS011;8369;48.030;11.598;2024-02-28T04:34:57;26.53;;;16.60;;
16512;SDS011;8369;48.030;11.598;2024-02-28T04:37:23;27.97;;;16.20;;
16512;SDS011;8369;48.030;11.598;2024-02-28T04:39:48;31.43;;;18.17;;
16512;SDS011;8369;48.030;11.598;2024-02-28T04:42:15;32.47;;;19.37;;
16512;SDS011;8369;48.030;11.598;2024-02-28T04:44:41;33.73;;;19.20;;
16512;SDS011;8369;48.030;11.598;2024-02-28T04:47:07;33.23;;;19.17;;
16512;SDS011;8369;48.030;11.598;2024-02-28T04:49:33;34.07;;;19.57;;
16512;SDS011;8369;48.030;11.598;2024-02-28T04:52:02;33.33;;;18.57;;
16512;SDS011;8369;48.030;11.598;2024-02-28T04:54:30;37.47;;;20.90;;
16512;SDS011;8369;48.030;11.598;2024-02-28T04:56:56;36.47;;;20.50;;
16512;SDS011;8369;48.030;11.598;2024-02-28T04:59:22;33.70;;;18.60;;
16512;SDS011;8369;48.030;11.598;2024-02-28T05:01:48;39.13;;;20.67;;
16512;SDS011;8369;48.030;11.598;2024-02-28T05:04:13;31.23;;;18.77;;
16512;SDS011;8369;48.030;11.598;2024-02-28T05:06:39;36.13;;;19.60;;
16512;SDS011;8369;48.030;11.598;2024-02-28T05:09:08;35.93;;;19.90;;
16512;SDS011;8369;48.030;11.598;2024-02-28T05:11:34;34.77;;;19.30;;
16512;SDS011;8369;48.030;11.598;2024-02-28T05:14:00;36.47;;;19.77;;
16512;SDS011;8369;48.030;11.598;2024-02-28T05:16:25;34.23;;;20.40;;
16512;SDS011;8369;48.030;11.598;2024-02-28T05:18:51;32.77;;;18.60;;
16512;SDS011;8369;48.030;11.598;2024-02-28T05:21:20;31.30;;;18.63;;
16512;SDS011;8369;48.030;11.598;2024-02-28T05:23:45;33.37;;;19.33;;
16512;SDS011;8369;48.030;11.598;2024-02-28T05:26:11;30.57;;;18.07;;
16512;SDS011;8369;48.030;11.598;2024-02-28T05:28:37;33.50;;;18.57;;
16512;SDS011;8369;48.030;11.598;2024-02-28T05:31:23;32.37;;;17.97;;
16512;SDS011;8369;48.030;11.598;2024-02-28T05:33:50;31.90;;;18.27;;
16512;SDS011;8369;48.030;11.598;2024-02-28T05:36:17;31.83;;;18.83;;
16512;SDS011;8369;48.030;11.598;2024-02-28T05:38:43;31.93;;;17.93;;
16512;SDS011;8369;48.030;11.598;2024-02-28T05:41:09;34.63;;;19.17;;
16512;SDS011;8369;48.030;11.598;2024-02-28T05:43:38;30.37;;;17.53;;
16512;SDS011;8369;48.030;11.598;2024-02-28T05:46:05;33.33;;;18.00;;
16512;SDS011;8369;48.030;11.598;2024-02-28T05:48:31;30.43;;;17.73;;
16512;SDS011;8369;48.030;11.598;2024-02-28T05:50:57;33.80;;;19.23;;
16512;SDS011;8369;48.030;11.598;2024-02-28T05:53:28;34.47;;;18.57;;
16512;SDS011;8369;48.030;11.598;2024-02-28T05:55:57;32.17;;;18.30;;
16512;SDS011;8369;48.030;11.598;2024-02-28T05:58:23;31.50;;;18.07;;
16512;SDS011;8369;48.030;11.598;2024-02-28T06:00:50;31.70;;;17.43;;
16512;SDS011;8369;48.030;11.598;2024-02-28T06:03:16;28.07;;;17.27;;
16512;SDS011;8369;48.030;11.598;2024-02-28T06:05:43;29.37;;;18.03;;
16512;SDS011;8369;48.030;11.598;2024-02-28T06:08:09;32.07;;;18.07;;
16512;SDS011;8369;48.030;11.598;2024-02-28T06:10:34;30.90;;;18.87;;
16512;SDS011;8369;48.030;11.598;2024-02-28T06:13:01;32.57;;;18.90;;
16512;SDS011;8369;48.030;11.598;2024-02-28T06:15:27;31.90;;;17.90;;
16512;SDS011;8369;48.030;11.598;2024-02-28T06:17:53;27.77;;;17.97;;
16512;SDS011;8369;48.030;11.598;2024-02-28T06:20:21;32.50;;;18.13;;
16512;SDS011;8369;48.030;11.598;2024-02-28T06:22:47;37.73;;;19.23;;
16512;SDS011;8369;48.030;11.598;2024-02-28T06:25:14;33.23;;;18.80;;
16512;SDS011;8369;48.030;11.598;2024-02-28T06:27:44;33.63;;;18.27;;
16512;SDS011;8369;48.030;11.598;2024-02-28T06:30:11;32.83;;;18.70;;
16512;SDS011;8369;48.030;11.598;2024-02-28T06:32:40;30.17;;;18.30;;
16512;SDS011;8369;48.030;11.598;2024-02-28T06:35:06;27.43;;;17.67;;
16512;SDS011;8369;48.030;11.598;2024-02-28T06:37:33;30.53;;;17.33;;
16512;SDS011;8369;48.030;11.598;2024-02-28T06:39:59;30.50;;;18.43;;
16512;SDS011;8369;48.030;11.598;2024-02-28T06:42:26;28.57;;;17.40;;
16512;SDS011;8369;48.030;11.598;2024-02-28T06:44:52;29.87;;;17.47;;
16512;SDS011;8369;48.030;11.598;2024-02-28T06:47:18;30.83;;;18.90;;
16512;SDS011;8369;48.030;11.598;2024-02-28T06:49:44;29.63;;;16.70;;
16512;SDS011;8369;48.030;11.598;2024-02-28T06:52:10;29.90;;;18.57;;
16512;SDS011;8369;48.030;11.598;2024-02-28T06:54:37;32.10;;;18.67;;
16512;SDS011;8369;48.030;11.598;2024-02-28T06:57:02;34.70;;;18.60;;
16512;SDS011;8369;48.030;11.598;2024-02-28T06:59:29;31.70;;;18.63;;
16512;SDS011;8369;48.030;11.598;2024-02-28T07:01:54;29.83;;;19.27;;
16512;SDS011;8369;48.030;11.598;2024-02-28T07:04:23;31.63;;;18.37;;
16512;SDS011;8369;48.030;11.598;2024-02-28T07:06:49;31.67;;;18.23;;
16512;SDS011;8369;48.030;11.598;2024-02-28T07:09:15;29.67;;;17.40;;
16512;SDS011;8369;48.030;11.598;2024-02-28T07:11:41;32.00;;;17.17;;
16512;SDS011;8369;48.030;11.598;2024-02-28T07:14:09;30.97;;;17.90;;
16512;SDS011;8369;48.030;11.598;2024-02-28T07:16:35;28.17;;;17.93;;
16512;SDS011;8369;48.030;11.598;2024-02-28T07:19:01;30.27;;;17.87;;
16512;SDS011;8369;48.030;11.598;2024-02-28T07:21:27;32.23;;;19.13;;
16512;SDS011;8369;48.030;11.598;2024-02-28T07:23:53;31.07;;;17.80;;
16512;SDS011;8369;48.030;11.598;2024-02-28T07:26:19;29.93;;;18.57;;
16512;SDS011;8369;48.030;11.598;2024-02-28T07:28:47;30.67;;;18.30;;
16512;SDS011;8369;48.030;11.598;2024-02-28T07:31:18;30.23;;;17.13;;
16512;SDS011;8369;48.030;11.598;2024-02-28T07:33:44;31.93;;;19.10;;
16512;SDS011;8369;48.030;11.598;2024-02-28T07:36:11;30.27;;;18.13;;
16512;SDS011;8369;48.030;11.598;2024-02-28T07:38:37;35.27;;;19.07;;
16512;SDS011;8369;48.030;11.598;2024-02-28T07:41:04;31.70;;;17.93;;
16512;SDS011;8369;48.030;11.598;2024-02-28T07:43:30;31.57;;;17.97;;
16512;SDS011;8369;48.030;11.598;2024-02-28T07:46:06;34.50;;;19.07;;
16512;SDS011;8369;48.030;11.598;2024-02-28T07:48:33;31.40;;;18.97;;
16512;SDS011;8369;48.030;11.598;2024-02-28T07:50:59;36.20;;;20.17;;
16512;SDS011;8369;48.030;11.598;2024-02-28T07:53:26;35.47;;;19.10;;
16512;SDS011;8369;48.030;11.598;2024-02-28T07:55:52;35.77;;;19.37;;
16512;SDS011;8369;48.030;11.598;2024-02-28T07:58:18;34.63;;;19.63;;
16512;SDS011;8369;48.030;11.598;2024-02-28T08:00:44;36.80;;;20.77;;
16512;SDS011;8369;48.030;11.598;2024-02-28T08:03:10;37.17;;;20.60;;
16512;SDS011;8369;48.030;11.598;2024-02-28T08:05:36;34.47;;;19.17;;
16512;SDS011;8369;48.030;11.598;2024-02-28T08:08:08;33.33;;;19.30;;
16512;SDS011;8369;48.030;11.598;2024-02-28T08:10:34;37.10;;;20.27;;
16512;SDS011;8369;48.030;11.598;2024-02-28T08:13:03;37.07;;;21.53;;
16512;SDS011;8369;48.030;11.598;2024-02-28T08:15:33;35.47;;;20.60;;
16512;SDS011;8369;48.030;11.598;2024-02-28T08:17:58;36.13;;;19.97;;
16512;SDS011;8369;48.030;11.598;2024-02-28T08:20:24;34.27;;;19.10;;
16512;SDS011;8369;48.030;11.598;2024-02-28T08:22:54;37.77;;;19.93;;
16512;SDS011;8369;48.030;11.598;2024-02-28T08:25:24;34.87;;;19.70;;
16512;SDS011;8369;48.030;11.598;2024-02-28T08:27:50;35.33;;;19.33;;
16512;SDS011;8369;48.030;11.598;2024-02-28T08:30:16;34.57;;;19.17;;
16512;SDS011;8369;48.030;11.598;2024-02-28T08:32:42;37.00;;;20.70;;
16512;SDS011;8369;48.030;11.598;2024-02-28T08:35:11;38.90;;;20.97;;
16512;SDS011;8369;48.030;11.598;2024-02-28T08:37:40;35.73;;;19.27;;
16512;SDS011;8369;48.030;11.598;2024-02-28T08:40:06;33.53;;;19.30;;
16512;SDS011;8369;48.030;11.598;2024-02-28T08:42:32;36.23;;;19.47;;
16512;SDS011;8369;48.030;11.598;2024-02-28T08:44:59;33.37;;;18.17;;
16512;SDS011;8369;48.030;11.598;2024-02-28T08:47:25;32.50;;;18.50;;
16512;SDS011;8369;48.030;11.598;2024-02-28T08:49:53;32.27;;;18.77;;
16512;SDS011;8369;48.030;11.598;2024-02-28T08:52:20;32.33;;;17.27;;
16512;SDS011;8369;48.030;11.598;2024-02-28T08:54:46;37.63;;;18.70;;
16512;SDS011;8369;48.030;11.598;2024-02-28T08:57:14;33.60;;;17.60;;
16512;SDS011;8369;48.030;11.598;2024-02-28T08:59:39;31.80;;;17.67;;
16512;SDS011;8369;48.030;11.598;2024-02-28T09:02:06;35.03;;;18.90;;
16512;SDS011;8369;48.030;11.598;2024-02-28T09:04:32;43.00;;;20.57;;
16512;SDS011;8369;48.030;11.598;2024-02-28T09:06:59;40.00;;;19.57;;
16512;SDS011;8369;48.030;11.598;2024-02-28T09:09:27;33.53;;;19.20;;
16512;SDS011;8369;48.030;11.598;2024-02-28T09:11:55;34.80;;;19.07;;
16512;SDS011;8369;48.030;11.598;2024-02-28T09:14:22;34.57;;;18.90;;
16512;SDS011;8369;48.030;11.598;2024-02-28T09:16:48;35.00;;;19.97;;
16512;SDS011;8369;48.030;11.598;2024-02-28T09:19:14;36.60;;;19.43;;
16512;SDS011;8369;48.030;11.598;2024-02-28T09:21:41;34.50;;;19.63;;
16512;SDS011;8369;48.030;11.598;2024-02-28T09:24:07;35.33;;;19.47;;
16512;SDS011;8369;48.030;11.598;2024-02-28T09:26:32;35.47;;;19.23;;
16512;SDS011;8369;48.030;11.598;2024-02-28T09:29:01;33.50;;;18.60;;
16512;SDS011;8369;48.030;11.598;2024-02-28T09:31:30;41.33;;;19.67;;
16512;SDS011;8369;48.030;11.598;2024-02-28T09:33:55;34.57;;;19.67;;
16512;SDS011;8369;48.030;11.598;2024-02-28T09:36:23;39.73;;;19.53;;
16512;SDS011;8369;48.030;11.598;2024-02-28T09:38:49;34.47;;;19.30;;
16512;SDS011;8369;48.030;11.598;2024-02-28T09:41:15;33.30;;;18.03;;
16512;SDS011;8369;48.030;11.598;2024-02-28T09:43:43;37.33;;;20.77;;
16512;SDS011;8369;48.030;11.598;2024-02-28T09:46:11;36.47;;;20.00;;
16512;SDS011;8369;48.030;11.598;2024-02-28T09:48:39;37.57;;;20.17;;
16512;SDS011;8369;48.030;11.598;2024-02-28T09:51:05;35.10;;;19.80;;
16512;SDS011;8369;48.030;11.598;2024-02-28T09:53:34;34.40;;;19.60;;
16512;SDS011;8369;48.030;11.598;2024-02-28T09:56:01;38.03;;;19.83;;
16512;SDS011;8369;48.030;11.598;2024-02-28T09:58:27;38.00;;;20.00;;
16512;SDS011;8369;48.030;11.598;2024-02-28T10:00:55;38.93;;;19.57;;
16512;SDS011;8369;48.030;11.598;2024-02-28T10:03:25;34.57;;;19.37;;
16512;SDS011;8369;48.030;11.598;2024-02-28T10:05:52;36.47;;;20.17;;
16512;SDS011;8369;48.030;11.598;2024-02-28T10:08:18;41.80;;;21.93;;
16512;SDS011;8369;48.030;11.598;2024-02-28T10:10:45;37.97;;;19.77;;
16512;SDS011;8369;48.030;11.598;2024-02-28T10:13:12;40.57;;;20.67;;
16512;SDS011;8369;48.030;11.598;2024-02-28T10:15:38;38.13;;;20.67;;
16512;SDS011;8369;48.030;11.598;2024-02-28T10:18:04;41.87;;;18.83;;
16512;SDS011;8369;48.030;11.598;2024-02-28T10:20:30;38.17;;;20.37;;
16512;SDS011;8369;48.030;11.598;2024-02-28T10:22:56;45.43;;;20.87;;
16512;SDS011;8369;48.030;11.598;2024-02-28T10:25:22;34.83;;;19.60;;
16512;SDS011;8369;48.030;11.598;2024-02-28T10:27:48;36.13;;;20.73;;
16512;SDS011;8369;48.030;11.598;2024-02-28T10:30:14;38.53;;;20.67;;
16512;SDS011;8369;48.030;11.598;2024-02-28T10:32:48;39.33;;;20.70;;
16512;SDS011;8369;48.030;11.598;2024-02-28T10:35:16;38.27;;;20.50;;
16512;SDS011;8369;48.030;11.598;2024-02-28T10:37:47;33.90;;;19.27;;
16512;SDS011;8369;48.030;11.598;2024-02-28T10:40:18;40.10;;;20.93;;
16512;SDS011;8369;48.030;11.598;2024-02-28T10:42:45;39.07;;;21.80;;
16512;SDS011;8369;48.030;11.598;2024-02-28T10:45:13;36.53;;;20.53;;
16512;SDS011;8369;48.030;11.598;2024-02-28T10:47:45;37.13;;;20.17;;
16512;SDS011;8369;48.030;11.598;2024-02-28T10:50:18;31.93;;;19.07;;
16512;SDS011;8369;48.030;11.598;2024-02-28T10:52:44;35.60;;;20.77;;
16512;SDS011;8369;48.030;11.598;2024-02-28T10:55:15;38.20;;;20.40;;
16512;SDS011;8369;48.030;11.598;2024-02-28T10:57:48;36.20;;;20.87;;
16512;SDS011;8369;48.030;11.598;2024-02-28T11:00:21;37.20;;;19.80;;
16512;SDS011;8369;48.030;11.598;2024-02-28T11:02:47;40.27;;;20.63;;
16512;SDS011;8369;48.030;11.598;2024-02-28T11:05:14;37.27;;;19.40;;
16512;SDS011;8369;48.030;11.598;2024-02-28T11:07:43;36.03;;;18.80;;
16512;SDS011;8369;48.030;11.598;2024-02-28T11:10:10;35.20;;;19.50;;
16512;SDS011;8369;48.030;11.598;2024-02-28T11:12:37;33.97;;;18.70;;
16512;SDS011;8369;48.030;11.598;2024-02-28T11:15:03;35.67;;;19.50;;
16512;SDS011;8369;48.030;11.598;2024-02-28T11:17:32;33.27;;;18.13;;
16512;SDS011;8369;48.030;11.598;2024-02-28T11:19:58;35.67;;;19.47;;
16512;SDS011;8369;48.030;11.598;2024-02-28T11:22:27;36.80;;;20.13;;
16512;SDS011;8369;48.030;11.598;2024-02-28T11:24:54;30.17;;;18.47;;
16512;SDS011;8369;48.030;11.598;2024-02-28T11:27:23;36.33;;;19.73;;
16512;SDS011;8369;48.030;11.598;2024-02-28T11:29:49;36.57;;;19.30;;
16512;SDS011;8369;48.030;11.598;2024-02-28T11:32:15;34.87;;;18.97;;
16512;SDS011;8369;48.030;11.598;2024-02-28T11:34:42;32.10;;;18.47;;
16512;SDS011;8369;48.030;11.598;2024-02-28T11:37:08;34.93;;;18.73;;
16512;SDS011;8369;48.030;11.598;2024-02-28T11:39:38;33.97;;;18.80;;
16512;SDS011;8369;48.030;11.598;2024-02-28T11:42:10;34.80;;;20.17;;
16512;SDS011;8369;48.030;11.598;2024-02-28T11:44:41;35.97;;;19.57;;
16512;SDS011;8369;48.030;11.598;2024-02-28T11:47:10;36.73;;;19.93;;
16512;SDS011;8369;48.030;11.598;2024-02-28T11:49:39;39.70;;;20.47;;
16512;SDS011;8369;48.030;11.598;2024-02-28T11:52:05;32.73;;;18.53;;
16512;SDS011;8369;48.030;11.598;2024-02-28T11:54:31;36.43;;;19.93;;
16512;SDS011;8369;48.030;11.598;2024-02-28T11:56:57;37.47;;;20.27;;
16512;SDS011;8369;48.030;11.598;2024-02-28T11:59:23;35.70;;;20.10;;
16512;SDS011;8369;48.030;11.598;2024-02-28T12:01:48;35.70;;;20.53;;
16512;SDS011;8369;48.030;11.598;2024-02-28T12:04:15;36.37;;;19.93;;
16512;SDS011;8369;48.030;11.598;2024-02-28T12:06:42;37.93;;;21.00;;
16512;SDS011;8369;48.030;11.598;2024-02-28T12:09:08;37.13;;;20.47;;
16512;SDS011;8369;48.030;11.598;2024-02-28T12:11:36;38.23;;;20.90;;
16512;SDS011;8369;48.030;11.598;2024-02-28T12:14:09;34.67;;;19.60;;
16512;SDS011;8369;48.030;11.598;2024-02-28T12:16:38;32.83;;;19.33;;
16512;SDS011;8369;48.030;11.598;2024-02-28T12:19:08;37.03;;;20.83;;
16512;SDS011;8369;48.030;11.598;2024-02-28T12:21:35;34.07;;;19.37;;
16512;SDS011;8369;48.030;11.598;2024-02-28T12:24:02;34.83;;;19.93;;
16512;SDS011;8369;48.030;11.598;2024-02-28T12:26:32;30.93;;;18.43;;
16512;SDS011;8369;48.030;11.598;2024-02-28T12:28:58;32.27;;;19.77;;
16512;SDS011;8369;48.030;11.598;2024-02-28T12:31:24;32.67;;;19.33;;
16512;SDS011;8369;48.030;11.598;2024-02-28T12:33:49;34.63;;;19.97;;
16512;SDS011;8369;48.030;11.598;2024-02-28T12:36:15;32.97;;;19.27;;
16512;SDS011;8369;48.030;11.598;2024-02-28T12:38:41;33.77;;;18.97;;
16512;SDS011;8369;48.030;11.598;2024-02-28T12:41:06;30.63;;;18.50;;
16512;SDS011;8369;48.030;11.598;2024-02-28T12:43:33;34.17;;;18.83;;
16512;SDS011;8369;48.030;11.598;2024-02-28T12:45:59;32.43;;;19.10;;
16512;SDS011;8369;48.030;11.598;2024-02-28T12:48:25;31.40;;;17.63;;
16512;SDS011;8369;48.030;11.598;2024-02-28T12:50:53;33.87;;;18.40;;
16512;SDS011;8369;48.030;11.598;2024-02-28T12:53:19;34.27;;;19.23;;
16512;SDS011;8369;48.030;11.598;2024-02-28T12:55:45;35.03;;;19.07;;
16512;SDS011;8369;48.030;11.598;2024-02-28T12:58:10;34.93;;;20.33;;
16512;SDS011;8369;48.030;11.598;2024-02-28T13:00:36;33.50;;;19.57;;
16512;SDS011;8369;48.030;11.598;2024-02-28T13:03:02;33.43;;;20.20;;
16512;SDS011;8369;48.030;11.598;2024-02-28T13:05:28;35.13;;;20.83;;
16512;SDS011;8369;48.030;11.598;2024-02-28T13:07:57;39.13;;;21.27;;
16512;SDS011;8369;48.030;11.598;2024-02-28T13:10:23;36.60;;;20.63;;
16512;SDS011;8369;48.030;11.598;2024-02-28T13:12:48;36.67;;;21.40;;
16512;SDS011;8369;48.030;11.598;2024-02-28T13:15:14;37.37;;;22.73;;
16512;SDS011;8369;48.030;11.598;2024-02-28T13:17:40;34.67;;;20.93;;
16512;SDS011;8369;48.030;11.598;2024-02-28T13:20:08;40.30;;;21.90;;
16512;SDS011;8369;48.030;11.598;2024-02-28T13:22:34;42.93;;;23.17;;
16512;SDS011;8369;48.030;11.598;2024-02-28T13:25:00;37.33;;;21.63;;
16512;SDS011;8369;48.030;11.598;2024-02-28T13:27:25;40.57;;;21.93;;
16512;SDS011;8369;48.030;11.598;2024-02-28T13:29:51;38.63;;;22.53;;
16512;SDS011;8369;48.030;11.598;2024-02-28T13:32:17;35.30;;;20.30;;
16512;SDS011;8369;48.030;11.598;2024-02-28T13:34:43;40.30;;;21.63;;
16512;SDS011;8369;48.030;11.598;2024-02-28T13:37:11;35.87;;;21.00;;
16512;SDS011;8369;48.030;11.598;2024-02-28T13:39:36;37.60;;;20.60;;
16512;SDS011;8369;48.030;11.598;2024-02-28T13:42:02;40.80;;;21.93;;
16512;SDS011;8369;48.030;11.598;2024-02-28T13:44:34;47.63;;;26.30;;
16512;SDS011;8369;48.030;11.598;2024-02-28T13:47:01;37.80;;;22.50;;
16512;SDS011;8369;48.030;11.598;2024-02-28T13:49:30;40.93;;;22.83;;
16512;SDS011;8369;48.030;11.598;2024-02-28T13:51:56;47.07;;;22.60;;
16512;SDS011;8369;48.030;11.598;2024-02-28T13:54:22;35.80;;;20.47;;
16512;SDS011;8369;48.030;11.598;2024-02-28T13:56:47;35.63;;;21.37;;
16512;SDS011;8369;48.030;11.598;2024-02-28T13:59:13;37.07;;;21.13;;
16512;SDS011;8369;48.030;11.598;2024-02-28T14:01:38;37.87;;;21.57;;
16512;SDS011;8369;48.030;11.598;2024-02-28T14:04:04;35.63;;;21.07;;
16512;SDS011;8369;48.030;11.598;2024-02-28T14:06:30;40.13;;;21.27;;
16512;SDS011;8369;48.030;11.598;2024-02-28T14:08:55;36.10;;;20.70;;
16512;SDS011;8369;48.030;11.598;2024-02-28T14:11:22;37.53;;;20.83;;
16512;SDS011;8369;48.030;11.598;2024-02-28T14:13:48;36.87;;;21.03;;
16512;SDS011;8369;48.030;11.598;2024-02-28T14:16:14;34.27;;;19.90;;
16512;SDS011;8369;48.030;11.598;2024-02-28T14:18:40;37.33;;;21.20;;